Terminal Aerodrome Forecast
Issued by NWS Omaha/Valley, NE

Home | Current Version | Previous Version | Text Only | Print | Product List | Glossary On
Versions: 1 2 3 4 5 6 7 8 9 10 11 12 13 14 15 16 17 18 19 20 21 22 23 24 25 26 27 28 29 30 31 32 33 34 35
000
FTUS43 KOAX 180538
TAFLNK
TAF
KLNK 180538Z 1806/1906 14007KT P6SM SCT250
     FM180800 16010KT P6SM SCT250 WS020/19050KT
     FM181200 18015G25KT P6SM SCT250 WS020/20060KT
     FM181600 20025G38KT P6SM SCT250 WS020/21060KT
     FM181800 20025G38KT P6SM SCT250
     FM182300 18012KT P6SM SCT250
     FM190200 12008KT P6SM BKN250=

USA.gov is the U.S. government's official web portal to all federal, state and local government web resources and services.